Time;durP1;ratioP1;P1;durP2;ratioP2;P2;SDS_P1;SDS_P2;PMS_P1;PMS_P2;Temp;Humidity;BMP_temperature;BMP_pressure;BME280_temperature;BME280_humidity;BME280_pressure;Samples;Min_cycle;Max_cycle;Signal;HPM_P1;HPM_P2
2023/04/27 00:00:10;;;;;;;5.75;3.40;;;9.00;99.90;;;;;;4150299;28;20033;-68
2023/04/27 00:02:10;;;;;;;3.33;2.80;;;9.00;99.90;;;;;;4150750;28;20042;-68
2023/04/27 00:04:13;;;;;;;5.10;3.22;;;9.00;99.90;;;;;;4156862;28;20041;-67
2023/04/27 00:06:13;;;;;;;6.07;2.97;;;8.90;99.90;;;;;;4151447;28;20094;-68
2023/04/27 00:08:14;;;;;;;4.60;3.20;;;8.90;99.90;;;;;;4150539;28;20129;-68
2023/04/27 00:10:14;;;;;;;4.97;3.25;;;8.90;99.90;;;;;;4149969;28;20476;-68
2023/04/27 00:12:15;;;;;;;4.47;2.90;;;8.90;99.90;;;;;;4151328;28;20037;-67
2023/04/27 00:14:15;;;;;;;4.18;3.00;;;8.90;99.90;;;;;;4155360;28;20045;-64
2023/04/27 00:16:16;;;;;;;3.85;2.30;;;8.80;99.90;;;;;;4152378;28;20084;-67
2023/04/27 00:18:17;;;;;;;3.47;2.47;;;8.80;99.90;;;;;;4155375;28;20045;-68
2023/04/27 00:20:18;;;;;;;4.38;2.50;;;8.70;99.90;;;;;;4153316;28;20075;-67
2023/04/27 00:22:18;;;;;;;5.72;2.70;;;8.70;99.90;;;;;;4159686;28;20045;-66
2023/04/27 00:24:19;;;;;;;8.02;3.17;;;8.60;99.90;;;;;;4157145;28;20036;-67
2023/04/27 00:26:21;;;;;;;4.10;2.92;;;8.60;99.90;;;;;;4155020;28;20034;-67
2023/04/27 00:28:21;;;;;;;5.53;3.30;;;8.60;99.90;;;;;;4159783;28;20057;-68
2023/04/27 00:30:22;;;;;;;3.92;2.92;;;8.60;99.90;;;;;;4157589;28;20586;-68
2023/04/27 00:32:22;;;;;;;5.00;2.78;;;8.50;99.90;;;;;;4159506;28;20124;-68
2023/04/27 00:34:23;;;;;;;4.78;2.95;;;8.50;99.90;;;;;;4158628;28;20092;-67
2023/04/27 00:36:24;;;;;;;4.38;2.83;;;8.50;99.90;;;;;;4156657;28;20099;-67
2023/04/27 00:38:24;;;;;;;4.35;2.45;;;8.40;99.90;;;;;;4158651;28;20469;-67
2023/04/27 00:40:25;;;;;;;5.43;3.00;;;8.40;99.90;;;;;;4158527;28;20064;-68
2023/04/27 00:42:25;;;;;;;3.50;2.67;;;8.40;99.90;;;;;;4158645;28;20123;-68
2023/04/27 00:44:26;;;;;;;3.95;2.30;;;8.30;99.90;;;;;;4156493;28;20037;-67
2023/04/27 00:46:28;;;;;;;5.75;2.78;;;8.30;99.90;;;;;;4154971;28;20550;-68
2023/04/27 00:48:29;;;;;;;5.53;2.85;;;8.30;99.90;;;;;;4159672;28;20049;-67
2023/04/27 00:50:30;;;;;;;3.55;2.58;;;8.30;99.90;;;;;;4157376;28;20404;-68
2023/04/27 00:52:30;;;;;;;3.20;2.30;;;8.20;99.90;;;;;;4158818;28;20526;-68
2023/04/27 00:54:31;;;;;;;4.07;2.75;;;8.20;99.90;;;;;;4156395;28;20029;-67
2023/04/27 00:56:32;;;;;;;3.75;2.83;;;8.20;99.90;;;;;;4157070;28;20051;-67
2023/04/27 00:58:32;;;;;;;5.38;3.10;;;8.20;99.90;;;;;;4159651;28;20108;-67
2023/04/27 01:00:35;;;;;;;5.50;2.90;;;8.20;99.90;;;;;;4157172;28;20025;-67
2023/04/27 01:02:36;;;;;;;4.20;2.80;;;8.10;99.90;;;;;;4159740;28;20495;-67
2023/04/27 01:04:37;;;;;;;4.18;2.95;;;8.10;99.90;;;;;;4158560;28;20128;-68
2023/04/27 01:06:40;;;;;;;5.55;3.00;;;8.00;99.90;;;;;;4160048;28;20506;-68
2023/04/27 01:08:41;;;;;;;4.55;3.22;;;8.00;99.90;;;;;;4159596;28;20048;-68
2023/04/27 01:10:41;;;;;;;5.00;3.28;;;8.00;99.90;;;;;;4160602;28;20033;-66
2023/04/27 01:12:42;;;;;;;5.88;3.60;;;7.90;99.90;;;;;;4162093;28;20064;-67
2023/04/27 01:14:43;;;;;;;5.82;3.40;;;7.90;99.90;;;;;;4160046;28;20061;-67
2023/04/27 01:16:45;;;;;;;6.35;3.85;;;7.90;99.90;;;;;;4159655;28;20051;-70
2023/04/27 01:18:46;;;;;;;5.37;3.80;;;7.80;99.90;;;;;;4161477;28;20044;-67
2023/04/27 01:20:46;;;;;;;5.97;4.07;;;7.80;99.90;;;;;;4159952;28;20443;-66
2023/04/27 01:22:47;;;;;;;4.63;3.60;;;7.80;99.90;;;;;;4161062;28;20038;-69
2023/04/27 01:24:48;;;;;;;5.63;3.90;;;7.70;99.90;;;;;;4159297;28;20046;-68
2023/04/27 01:26:51;;;;;;;4.57;3.15;;;7.70;99.90;;;;;;4160153;28;20037;-67
2023/04/27 01:28:51;;;;;;;6.05;3.70;;;7.70;99.90;;;;;;4162106;28;20107;-68
2023/04/27 01:30:52;;;;;;;6.65;4.00;;;7.70;99.90;;;;;;4160204;28;20049;-68
2023/04/27 01:32:53;;;;;;;6.72;3.80;;;7.70;99.90;;;;;;4161904;28;20037;-68
2023/04/27 01:34:54;;;;;;;7.60;3.78;;;7.70;99.90;;;;;;4159549;28;20503;-69
2023/04/27 01:36:54;;;;;;;5.75;3.75;;;7.70;99.90;;;;;;4152893;28;20116;-68
2023/04/27 01:38:55;;;;;;;5.25;4.00;;;7.70;99.90;;;;;;4161133;28;20041;-68
2023/04/27 01:41:00;;;;;;;6.82;4.13;;;7.70;99.90;;;;;;4156077;28;20393;-68
2023/04/27 01:43:01;;;;;;;7.10;3.97;;;7.70;99.90;;;;;;4159766;28;20083;-68
2023/04/27 01:45:02;;;;;;;8.52;4.63;;;7.70;99.90;;;;;;4158360;28;20451;-67
2023/04/27 01:47:03;;;;;;;7.40;4.30;;;7.70;99.90;;;;;;4160006;28;20048;-67
2023/04/27 01:49:04;;;;;;;6.20;4.15;;;7.80;99.90;;;;;;4162038;28;20037;-68
2023/04/27 01:51:05;;;;;;;6.97;4.25;;;7.70;99.90;;;;;;4160133;28;20056;-67
2023/04/27 01:53:09;;;;;;;8.05;4.57;;;7.70;99.90;;;;;;4160146;28;20041;-67
2023/04/27 01:55:10;;;;;;;7.47;4.32;;;7.70;99.90;;;;;;4159261;28;20071;-67
2023/04/27 01:57:10;;;;;;;7.20;3.97;;;7.70;99.90;;;;;;4159969;28;20121;-67
2023/04/27 01:59:11;;;;;;;6.75;4.00;;;7.70;99.90;;;;;;4162354;28;20114;-67
2023/04/27 02:01:12;;;;;;;7.55;4.38;;;7.70;99.90;;;;;;4159455;28;20033;-67
2023/04/27 02:03:12;;;;;;;5.70;3.83;;;7.70;99.90;;;;;;4160703;28;20040;-67
2023/04/27 02:05:13;;;;;;;7.35;3.92;;;7.70;99.90;;;;;;4158975;28;20419;-68
2023/04/27 02:07:14;;;;;;;5.72;4.00;;;7.70;99.90;;;;;;4160393;28;20037;-67
2023/04/27 02:09:14;;;;;;;9.68;4.00;;;7.70;99.90;;;;;;4161333;28;20034;-67
2023/04/27 02:11:15;;;;;;;9.63;4.50;;;7.70;99.90;;;;;;4160659;28;20120;-67
2023/04/27 02:13:15;;;;;;;6.65;3.63;;;7.60;99.90;;;;;;4160657;28;20033;-67
2023/04/27 02:15:16;;;;;;;7.30;4.38;;;7.60;99.90;;;;;;4156880;28;20029;-67
2023/04/27 02:17:17;;;;;;;7.70;3.78;;;7.60;99.90;;;;;;4161122;28;20071;-67
2023/04/27 02:19:18;;;;;;;6.75;4.38;;;7.60;99.90;;;;;;4161239;28;20034;-67
2023/04/27 02:21:21;;;;;;;7.22;4.20;;;7.60;99.90;;;;;;4158772;28;21531;-67
2023/04/27 02:23:22;;;;;;;6.55;3.90;;;7.60;99.90;;;;;;4160812;28;20033;-68
2023/04/27 02:25:22;;;;;;;7.05;3.80;;;7.60;99.90;;;;;;4156678;28;20400;-67
2023/04/27 02:27:23;;;;;;;7.43;4.15;;;7.50;99.90;;;;;;4159958;28;20034;-67
2023/04/27 02:29:29;;;;;;;6.47;4.10;;;7.50;99.90;;;;;;4160744;28;20435;-67
2023/04/27 02:31:30;;;;;;;7.50;4.22;;;7.50;99.90;;;;;;4148018;28;20521;-68
2023/04/27 02:33:31;;;;;;;6.40;3.80;;;7.50;99.90;;;;;;4160905;28;20128;-67
2023/04/27 02:35:32;;;;;;;5.78;3.50;;;7.50;99.90;;;;;;4158385;28;20053;-67
2023/04/27 02:37:33;;;;;;;6.38;4.13;;;7.50;99.90;;;;;;4148618;28;20069;-67
2023/04/27 02:39:34;;;;;;;6.30;4.13;;;7.40;99.90;;;;;;4160884;28;20071;-67
2023/04/27 02:41:34;;;;;;;7.13;4.05;;;7.40;99.90;;;;;;4157820;28;20041;-66
2023/04/27 02:43:35;;;;;;;5.70;4.35;;;7.40;99.90;;;;;;4156932;28;20373;-69
2023/04/27 02:45:37;;;;;;;6.97;4.25;;;7.40;99.90;;;;;;4157449;28;20041;-69
2023/04/27 02:47:37;;;;;;;6.40;3.87;;;7.40;99.90;;;;;;4160640;28;20460;-69
2023/04/27 02:49:38;;;;;;;5.15;4.10;;;7.30;99.90;;;;;;4147481;28;20041;-69
2023/04/27 02:51:39;;;;;;;5.78;4.22;;;7.20;99.90;;;;;;4157576;28;20044;-67
2023/04/27 02:53:40;;;;;;;8.98;4.82;;;6.90;99.90;;;;;;4158856;28;20034;-70
2023/04/27 02:55:47;;;;;;;6.45;4.43;;;6.80;99.90;;;;;;4155974;28;20049;-69
2023/04/27 02:57:48;;;;;;;8.88;4.80;;;6.60;99.90;;;;;;4155957;28;20515;-66
2023/04/27 02:59:49;;;;;;;8.43;4.95;;;6.40;99.90;;;;;;4161423;28;20069;-66
2023/04/27 03:01:49;;;;;;;9.77;5.10;;;6.20;99.90;;;;;;4156828;28;20062;-66
2023/04/27 03:03:50;;;;;;;10.82;5.47;;;6.00;99.90;;;;;;4159488;28;20041;-67
2023/04/27 03:05:51;;;;;;;9.68;6.15;;;5.90;99.90;;;;;;4157603;28;20052;-66
2023/04/27 03:07:51;;;;;;;9.80;5.70;;;5.90;99.90;;;;;;4160789;28;20053;-66
2023/04/27 03:09:52;;;;;;;10.27;5.57;;;5.80;99.90;;;;;;4160773;28;20096;-67
2023/04/27 03:11:53;;;;;;;10.80;5.75;;;5.70;99.90;;;;;;4159158;28;20037;-67
2023/04/27 03:13:53;;;;;;;7.63;4.70;;;5.70;99.90;;;;;;4157849;28;20136;-67
2023/04/27 03:15:54;;;;;;;6.38;4.45;;;5.70;99.90;;;;;;4157514;28;20038;-68
2023/04/27 03:17:55;;;;;;;7.82;5.07;;;5.70;99.90;;;;;;4158747;28;20803;-70
2023/04/27 03:19:55;;;;;;;6.43;4.43;;;5.80;99.90;;;;;;4160804;28;20029;-67
2023/04/27 03:21:56;;;;;;;6.18;4.43;;;5.80;99.90;;;;;;4158687;28;20061;-66
2023/04/27 03:23:57;;;;;;;7.53;4.72;;;5.90;99.90;;;;;;4159020;28;20131;-67
2023/04/27 03:25:58;;;;;;;5.53;4.13;;;5.90;99.90;;;;;;4156865;28;20116;-68
2023/04/27 03:27:58;;;;;;;8.93;4.95;;;5.90;99.90;;;;;;4159182;28;20558;-67
2023/04/27 03:29:59;;;;;;;8.65;4.95;;;6.00;99.90;;;;;;4160683;28;20113;-68
2023/04/27 03:31:59;;;;;;;9.30;5.03;;;6.10;99.90;;;;;;4141151;28;20041;-67
2023/04/27 03:34:00;;;;;;;6.50;4.13;;;6.10;99.90;;;;;;4156997;28;20099;-67
2023/04/27 03:36:03;;;;;;;9.20;5.10;;;6.20;99.90;;;;;;4157284;28;20045;-67
2023/04/27 03:38:03;;;;;;;9.05;5.13;;;6.30;99.90;;;;;;4160735;28;20030;-68
2023/04/27 03:40:08;;;;;;;7.55;4.80;;;6.30;99.90;;;;;;4159641;28;20033;-67
2023/04/27 03:42:08;;;;;;;8.80;4.50;;;6.40;99.90;;;;;;4159158;28;20049;-67
2023/04/27 03:44:09;;;;;;;7.43;4.70;;;6.40;99.90;;;;;;4146461;28;20042;-67
2023/04/27 03:46:09;;;;;;;7.90;4.63;;;6.40;99.90;;;;;;4156848;28;20044;-67
2023/04/27 03:48:10;;;;;;;7.15;4.18;;;6.40;99.90;;;;;;4160304;28;20056;-68
2023/04/27 03:50:11;;;;;;;7.40;4.60;;;6.40;99.90;;;;;;4158536;28;20423;-68
2023/04/27 03:52:11;;;;;;;6.80;4.90;;;6.40;99.90;;;;;;4160082;28;20460;-68
2023/04/27 03:54:12;;;;;;;8.15;5.05;;;6.50;99.90;;;;;;4159265;28;20141;-68
2023/04/27 03:56:13;;;;;;;7.88;4.80;;;6.50;99.90;;;;;;4158498;28;20365;-68
2023/04/27 03:58:13;;;;;;;6.75;4.70;;;6.60;99.90;;;;;;4159409;28;20037;-67
2023/04/27 04:00:14;;;;;;;6.75;4.22;;;6.60;99.90;;;;;;4157344;28;20033;-68
2023/04/27 04:02:16;;;;;;;7.57;4.30;;;6.70;99.90;;;;;;4158520;28;20528;-68
2023/04/27 04:04:16;;;;;;;6.97;4.63;;;6.60;99.90;;;;;;4158628;28;20046;-67
2023/04/27 04:06:17;;;;;;;5.03;4.05;;;6.70;99.90;;;;;;4157161;28;20298;-68
2023/04/27 04:08:17;;;;;;;7.43;4.28;;;6.70;99.90;;;;;;4159616;28;20041;-68
2023/04/27 04:10:18;;;;;;;6.70;3.95;;;6.70;99.90;;;;;;4158263;28;20472;-68
2023/04/27 04:12:18;;;;;;;5.45;4.05;;;6.60;99.90;;;;;;4159097;28;20056;-67
2023/04/27 04:14:19;;;;;;;5.57;4.35;;;6.60;99.90;;;;;;4157487;28;20069;-68
2023/04/27 04:16:20;;;;;;;7.63;4.50;;;6.70;99.90;;;;;;4156006;28;20040;-67
2023/04/27 04:18:20;;;;;;;5.65;4.20;;;6.70;99.90;;;;;;4157799;28;20037;-68
2023/04/27 04:20:21;;;;;;;6.65;4.30;;;6.70;99.90;;;;;;4158204;28;20033;-68
2023/04/27 04:22:22;;;;;;;7.82;4.88;;;6.70;99.90;;;;;;4155146;28;20041;-67
2023/04/27 04:24:22;;;;;;;7.35;4.82;;;6.60;99.90;;;;;;4124842;28;20034;-66
2023/04/27 04:26:23;;;;;;;8.70;4.95;;;6.60;99.90;;;;;;4151846;28;20087;-67
2023/04/27 04:28:24;;;;;;;8.23;4.70;;;6.60;99.90;;;;;;4156409;28;20124;-70
2023/04/27 04:30:25;;;;;;;7.20;4.65;;;6.60;99.90;;;;;;4156941;28;20113;-69
2023/04/27 04:32:30;;;;;;;7.10;4.63;;;6.60;99.90;;;;;;4159095;28;20460;-69
2023/04/27 04:34:30;;;;;;;6.78;4.57;;;6.60;99.90;;;;;;4155559;28;20026;-67
2023/04/27 04:36:31;;;;;;;7.57;4.65;;;6.60;99.90;;;;;;4156796;28;20033;-68
2023/04/27 04:38:32;;;;;;;5.45;4.10;;;6.60;99.90;;;;;;4161221;28;20139;-69
2023/04/27 04:40:32;;;;;;;5.10;3.97;;;6.60;99.90;;;;;;4161779;28;20030;-68
2023/04/27 04:42:34;;;;;;;11.27;4.60;;;6.60;99.90;;;;;;4161129;28;20483;-67
2023/04/27 04:44:35;;;;;;;8.77;4.15;;;6.60;99.90;;;;;;4159775;28;20033;-66
2023/04/27 04:46:36;;;;;;;5.47;4.32;;;6.60;99.90;;;;;;4154978;28;20034;-67
2023/04/27 04:48:37;;;;;;;9.05;4.32;;;6.60;99.90;;;;;;4152874;28;20046;-66
2023/04/27 04:50:38;;;;;;;6.85;4.03;;;6.60;99.90;;;;;;4161495;28;20388;-67
2023/04/27 04:52:39;;;;;;;5.15;3.97;;;6.60;99.90;;;;;;4159343;28;20112;-67
2023/04/27 04:54:39;;;;;;;5.65;4.00;;;6.60;99.90;;;;;;4152730;28;22082;-68
2023/04/27 04:56:40;;;;;;;5.55;4.03;;;6.60;99.90;;;;;;4160313;28;20420;-67
2023/04/27 04:58:41;;;;;;;4.65;3.88;;;6.60;99.90;;;;;;4162722;28;20033;-69
2023/04/27 05:00:42;;;;;;;5.88;4.10;;;6.60;99.90;;;;;;4160525;28;20038;-67
2023/04/27 05:02:42;;;;;;;6.75;4.18;;;6.60;99.90;;;;;;4161847;28;20477;-67
2023/04/27 05:04:43;;;;;;;6.45;4.10;;;6.60;99.90;;;;;;4157096;28;20037;-67
2023/04/27 05:06:44;;;;;;;7.38;4.50;;;6.60;99.90;;;;;;4160455;28;20133;-68
2023/04/27 05:08:44;;;;;;;5.72;4.13;;;6.60;99.90;;;;;;4150732;28;20428;-67
2023/04/27 05:10:49;;;;;;;4.95;4.15;;;6.60;99.90;;;;;;4145194;28;20038;-67
2023/04/27 05:12:50;;;;;;;7.57;4.85;;;6.60;99.90;;;;;;4156467;28;20045;-67
2023/04/27 05:14:51;;;;;;;7.30;4.80;;;6.70;99.90;;;;;;4155856;28;20053;-66
2023/04/27 05:16:52;;;;;;;6.47;4.70;;;6.70;99.90;;;;;;4155741;28;20124;-67
2023/04/27 05:18:53;;;;;;;6.03;4.38;;;6.70;99.90;;;;;;4158146;28;20072;-67
2023/04/27 05:20:54;;;;;;;6.43;4.47;;;6.70;99.90;;;;;;4142130;28;20046;-67
2023/04/27 05:22:55;;;;;;;9.40;4.50;;;6.70;99.90;;;;;;4152090;28;20065;-67
2023/04/27 05:24:56;;;;;;;10.60;5.47;;;6.70;99.90;;;;;;4156102;28;20041;-68
2023/04/27 05:26:56;;;;;;;8.80;5.03;;;6.80;99.90;;;;;;4152697;28;20592;-68
2023/04/27 05:28:57;;;;;;;9.93;4.53;;;6.80;99.90;;;;;;4153749;28;20769;-68
2023/04/27 05:30:58;;;;;;;9.05;4.65;;;6.80;99.90;;;;;;4154569;28;20551;-75
2023/04/27 05:34:47;;;;;;;6.20;4.68;;;6.90;99.90;;;;;;4173111;27;20394;-67
2023/04/27 05:36:48;;;;;;;6.38;4.32;;;6.90;99.90;;;;;;4168582;28;20512;-67
2023/04/27 05:38:48;;;;;;;10.80;5.45;;;6.90;99.90;;;;;;4170309;28;20037;-69
2023/04/27 05:40:58;;;;;;;8.73;5.30;;;6.90;99.90;;;;;;4165259;28;20041;-67
2023/04/27 05:43:02;;;;;;;8.98;5.57;;;6.80;99.90;;;;;;4190030;28;20120;-69
2023/04/27 05:45:03;;;;;;;8.38;5.35;;;6.70;99.90;;;;;;4187045;28;20488;-69
2023/04/27 05:47:03;;;;;;;9.55;5.78;;;6.70;99.90;;;;;;4170893;28;20026;-68
2023/04/27 05:49:04;;;;;;;11.82;6.63;;;6.60;99.90;;;;;;4187271;28;20021;-67
2023/04/27 05:51:05;;;;;;;12.65;7.10;;;6.60;99.90;;;;;;4172803;28;20107;-69
2023/04/27 05:53:05;;;;;;;13.48;7.63;;;6.50;99.90;;;;;;4186355;28;20055;-67
2023/04/27 05:55:07;;;;;;;11.23;6.82;;;6.50;99.90;;;;;;4188069;28;20267;-66
2023/04/27 05:57:07;;;;;;;13.50;7.78;;;6.50;99.90;;;;;;4187340;28;20066;-69
2023/04/27 05:59:08;;;;;;;16.38;8.25;;;6.50;99.90;;;;;;4188038;28;20112;-67
2023/04/27 06:01:09;;;;;;;14.60;8.20;;;6.60;99.90;;;;;;4183121;28;20119;-67
2023/04/27 06:03:10;;;;;;;17.42;8.90;;;6.50;99.90;;;;;;4170102;28;20441;-69
2023/04/27 06:05:11;;;;;;;11.63;8.05;;;6.60;99.90;;;;;;4167343;28;20041;-67
2023/04/27 06:07:13;;;;;;;16.17;8.27;;;6.60;99.90;;;;;;4186529;28;20064;-67
2023/04/27 06:09:14;;;;;;;18.52;8.35;;;6.70;99.90;;;;;;4185926;28;20520;-67
2023/04/27 06:11:18;;;;;;;20.25;9.07;;;6.70;99.90;;;;;;4183746;28;20032;-68
2023/04/27 06:13:19;;;;;;;15.02;7.95;;;6.80;99.90;;;;;;4187106;28;20052;-69
2023/04/27 06:15:20;;;;;;;15.88;8.30;;;6.90;99.90;;;;;;4168421;28;20505;-68
2023/04/27 06:17:21;;;;;;;13.65;6.72;;;6.90;99.90;;;;;;4188564;28;20071;-67
2023/04/27 06:19:21;;;;;;;15.63;7.93;;;6.90;99.90;;;;;;4186482;28;20047;-65
2023/04/27 06:21:22;;;;;;;13.05;7.15;;;6.90;99.90;;;;;;4187470;28;20333;-66
2023/04/27 06:23:22;;;;;;;15.48;8.02;;;7.10;99.90;;;;;;4188123;28;20120;-67
2023/04/27 06:25:23;;;;;;;14.90;7.03;;;7.20;99.90;;;;;;4189422;28;20097;-67
2023/04/27 06:27:24;;;;;;;16.73;7.57;;;7.20;99.90;;;;;;4186170;28;20420;-67
2023/04/27 06:29:27;;;;;;;17.98;7.93;;;7.20;99.90;;;;;;4185733;28;20110;-67
2023/04/27 06:31:28;;;;;;;18.33;8.38;;;7.40;99.90;;;;;;4181705;28;20039;-67
2023/04/27 06:33:29;;;;;;;16.05;7.70;;;7.40;99.90;;;;;;4186681;28;20493;-68
2023/04/27 06:35:30;;;;;;;16.95;7.70;;;7.60;99.90;;;;;;4168882;28;20072;-70
2023/04/27 06:37:31;;;;;;;18.77;6.78;;;7.80;99.90;;;;;;4184707;28;20060;-67
2023/04/27 06:39:31;;;;;;;21.25;7.85;;;8.00;99.90;;;;;;4183434;28;20155;-67
2023/04/27 06:41:32;;;;;;;16.58;7.53;;;8.30;99.90;;;;;;4183858;28;20077;-68
2023/04/27 06:43:33;;;;;;;12.30;6.10;;;8.60;99.90;;;;;;4187302;28;20044;-68
2023/04/27 06:45:34;;;;;;;14.38;6.43;;;8.90;99.90;;;;;;4180467;28;20376;-68
2023/04/27 06:47:35;;;;;;;14.02;6.35;;;9.20;99.90;;;;;;4172061;28;20499;-68
2023/04/27 06:49:36;;;;;;;11.35;5.80;;;9.50;99.90;;;;;;4170902;28;20033;-68
2023/04/27 06:51:36;;;;;;;9.93;5.57;;;9.70;99.90;;;;;;4173508;28;20507;-68
2023/04/27 06:53:37;;;;;;;9.80;5.28;;;10.00;99.90;;;;;;4178718;28;20526;-68
2023/04/27 06:55:42;;;;;;;11.75;4.82;;;10.20;99.90;;;;;;4175155;28;20469;-69
2023/04/27 06:57:42;;;;;;;11.50;5.07;;;10.60;99.90;;;;;;4174833;28;20127;-68
2023/04/27 06:59:43;;;;;;;8.27;4.43;;;10.70;99.90;;;;;;4175422;28;20048;-68
2023/04/27 07:01:43;;;;;;;7.60;4.00;;;10.70;99.90;;;;;;4171346;28;20032;-68
2023/04/27 07:03:45;;;;;;;7.00;4.25;;;10.90;99.90;;;;;;4163982;28;20056;-68
2023/04/27 07:05:45;;;;;;;10.40;4.25;;;11.00;99.90;;;;;;4170951;28;20033;-69
2023/04/27 07:07:46;;;;;;;11.50;3.95;;;11.20;99.90;;;;;;4173598;28;20033;-68
2023/04/27 07:09:46;;;;;;;8.88;3.97;;;11.30;99.90;;;;;;4172710;28;20782;-68
2023/04/27 07:11:47;;;;;;;9.65;3.47;;;11.30;99.90;;;;;;4171554;28;20563;-68
2023/04/27 07:13:48;;;;;;;7.28;3.70;;;11.30;99.90;;;;;;4192695;28;20162;-68
2023/04/27 07:15:56;;;;;;;12.05;3.83;;;11.40;99.90;;;;;;4173724;28;20032;-70
2023/04/27 07:17:56;;;;;;;9.40;3.90;;;11.60;99.90;;;;;;4187952;28;20043;-68
2023/04/27 07:19:58;;;;;;;9.32;3.40;;;11.40;99.90;;;;;;4175705;28;20552;-68
2023/04/27 07:21:58;;;;;;;7.70;3.80;;;11.50;99.90;;;;;;4172818;28;20036;-69
2023/04/27 07:23:59;;;;;;;10.15;3.78;;;11.60;99.90;;;;;;4156265;28;20142;-69
2023/04/27 07:26:00;;;;;;;8.93;4.00;;;11.70;99.90;;;;;;4174950;28;20029;-69
2023/04/27 07:28:00;;;;;;;11.43;3.72;;;11.80;99.90;;;;;;4175789;28;20033;-63
2023/04/27 07:30:01;;;;;;;8.25;3.72;;;12.00;99.90;;;;;;4155816;28;20034;-62
2023/04/27 07:32:05;;;;;;;7.22;3.67;;;11.90;99.90;;;;;;4173899;28;20048;-62
2023/04/27 07:34:10;;;;;;;8.00;3.03;;;12.10;99.90;;;;;;4189090;28;20044;-62
2023/04/27 07:36:10;;;;;;;6.50;3.58;;;12.20;99.90;;;;;;4175179;28;20036;-63
2023/04/27 07:38:11;;;;;;;8.13;3.92;;;12.40;99.90;;;;;;4165120;28;20187;-62
2023/04/27 07:40:15;;;;;;;9.70;4.28;;;12.40;99.90;;;;;;4185999;28;20044;-63
2023/04/27 07:42:17;;;;;;;5.20;3.08;;;12.50;98.20;;;;;;4155735;28;20041;-63
2023/04/27 07:44:18;;;;;;;7.03;3.00;;;12.60;97.30;;;;;;4177258;28;20033;-65
2023/04/27 07:46:22;;;;;;;7.68;3.83;;;12.70;99.60;;;;;;4170371;28;20131;-62
2023/04/27 07:48:23;;;;;;;8.15;3.33;;;12.80;97.00;;;;;;4172592;28;20113;-64
2023/04/27 07:50:24;;;;;;;8.63;3.40;;;12.80;96.30;;;;;;4172974;28;20037;-63
2023/04/27 07:52:25;;;;;;;6.82;3.42;;;12.50;96.30;;;;;;4173225;28;20040;-63
2023/04/27 07:54:26;;;;;;;7.32;3.22;;;12.80;97.90;;;;;;4176659;28;20083;-62
2023/04/27 07:56:26;;;;;;;8.43;3.47;;;12.80;96.50;;;;;;4172128;28;20082;-63
2023/04/27 07:58:27;;;;;;;7.35;3.08;;;12.80;97.70;;;;;;4175844;28;20104;-63
2023/04/27 08:00:28;;;;;;;7.30;3.40;;;12.90;96.90;;;;;;4170075;28;20482;-62
2023/04/27 08:02:30;;;;;;;7.05;3.42;;;12.90;95.00;;;;;;4175738;28;20037;-63
2023/04/27 08:04:31;;;;;;;6.90;3.22;;;12.70;95.80;;;;;;4174422;28;20029;-63
2023/04/27 08:06:31;;;;;;;5.97;2.80;;;12.80;95.40;;;;;;4173278;28;20035;-62
2023/04/27 08:08:32;;;;;;;6.63;3.00;;;12.80;95.20;;;;;;4176245;28;20040;-63
2023/04/27 08:10:32;;;;;;;6.25;3.70;;;12.90;94.20;;;;;;4171171;28;20021;-63
2023/04/27 08:12:34;;;;;;;7.15;3.97;;;12.90;95.50;;;;;;4172924;28;20041;-63
2023/04/27 08:14:35;;;;;;;8.00;3.22;;;12.80;94.20;;;;;;4175359;28;20084;-62
2023/04/27 08:16:35;;;;;;;5.78;3.22;;;12.60;94.40;;;;;;4170782;28;20182;-63
2023/04/27 08:18:36;;;;;;;8.35;3.10;;;12.60;94.00;;;;;;4173935;28;20474;-63
2023/04/27 08:20:37;;;;;;;5.22;3.20;;;12.50;94.50;;;;;;4172108;28;21015;-63
2023/04/27 08:22:39;;;;;;;8.88;3.42;;;12.50;94.90;;;;;;4155512;28;20413;-62
2023/04/27 08:24:39;;;;;;;8.77;3.10;;;12.60;95.10;;;;;;4169194;28;20029;-63
2023/04/27 08:26:40;;;;;;;6.63;2.50;;;12.70;94.70;;;;;;4169551;28;20058;-63
2023/04/27 08:28:41;;;;;;;7.63;3.05;;;12.80;94.10;;;;;;4171870;28;20520;-63
2023/04/27 08:30:42;;;;;;;6.93;3.63;;;12.90;94.30;;;;;;4166679;28;20040;-63
2023/04/27 08:32:42;;;;;;;7.45;3.13;;;13.00;94.60;;;;;;4173766;28;20090;-62
2023/04/27 08:34:46;;;;;;;4.75;2.65;;;13.10;95.40;;;;;;4172588;28;20570;-63
2023/04/27 08:36:47;;;;;;;9.57;3.72;;;13.20;95.30;;;;;;4173113;28;20041;-63
2023/04/27 08:38:47;;;;;;;5.47;2.50;;;13.10;95.50;;;;;;4175700;28;20036;-62
2023/04/27 08:40:48;;;;;;;4.78;3.08;;;13.10;96.90;;;;;;4172029;28;20032;-62
2023/04/27 08:42:56;;;;;;;6.63;3.20;;;13.30;94.90;;;;;;4164504;28;20115;-62
2023/04/27 08:44:58;;;;;;;4.85;2.33;;;13.30;93.90;;;;;;4172091;28;20039;-62
2023/04/27 08:46:58;;;;;;;5.40;3.05;;;13.40;93.80;;;;;;4170598;28;22624;-63
2023/04/27 08:48:59;;;;;;;3.55;2.50;;;13.40;94.50;;;;;;4173012;28;20063;-63
2023/04/27 08:51:01;;;;;;;5.88;2.92;;;13.40;92.00;;;;;;4173525;28;20029;-62
2023/04/27 08:53:02;;;;;;;6.82;3.15;;;13.40;92.90;;;;;;4171106;28;20056;-62
2023/04/27 08:55:03;;;;;;;6.32;2.65;;;13.20;92.70;;;;;;4172450;28;20056;-62
2023/04/27 08:57:15;;;;;;;4.88;2.72;;;13.40;95.30;;;;;;4172149;28;20033;-62
2023/04/27 08:59:16;;;;;;;7.25;3.15;;;13.20;92.70;;;;;;4168524;28;20513;-63
2023/04/27 09:01:17;;;;;;;8.95;3.70;;;13.30;94.00;;;;;;4169318;28;20037;-62
2023/04/27 09:03:22;;;;;;;8.05;3.88;;;13.00;91.60;;;;;;4173056;28;20036;-62
2023/04/27 09:05:23;;;;;;;7.00;3.03;;;13.00;93.30;;;;;;4170095;28;20033;-62
2023/04/27 09:07:24;;;;;;;9.07;2.90;;;13.20;97.30;;;;;;4175926;28;20086;-63
2023/04/27 09:09:25;;;;;;;7.32;1.95;;;13.00;92.90;;;;;;4155710;28;20037;-63
2023/04/27 09:11:41;;;;;;;4.50;2.47;;;13.10;94.10;;;;;;4171765;28;20055;-62
2023/04/27 09:13:45;;;;;;;3.90;1.75;;;12.90;90.20;;;;;;4164911;28;20716;-62
2023/04/27 09:15:48;;;;;;;2.63;1.38;;;13.00;89.90;;;;;;4169015;28;20074;-62
2023/04/27 09:17:54;;;;;;;3.53;1.90;;;13.00;89.50;;;;;;4172179;28;20115;-62
2023/04/27 09:20:12;;;;;;;4.93;1.90;;;12.90;87.90;;;;;;4188905;28;21121;-63
2023/04/27 09:22:15;;;;;;;2.85;1.88;;;12.90;90.40;;;;;;4171619;28;20548;-62
2023/04/27 09:24:16;;;;;;;6.85;2.03;;;13.10;92.10;;;;;;4172922;28;20063;-62
2023/04/27 09:26:22;;;;;;;3.15;1.60;;;13.20;88.00;;;;;;4168518;28;20439;-62
2023/04/27 09:28:26;;;;;;;4.13;1.90;;;13.30;91.10;;;;;;4151816;28;20041;-62
2023/04/27 09:30:28;;;;;;;6.13;2.20;;;13.40;90.10;;;;;;4161172;28;20488;-62
2023/04/27 09:32:28;;;;;;;4.72;2.05;;;13.40;90.20;;;;;;4167382;28;20068;-62
2023/04/27 09:34:42;;;;;;;3.60;1.55;;;13.60;88.60;;;;;;4167959;28;20989;-62
2023/04/27 09:36:43;;;;;;;3.58;1.98;;;13.60;86.00;;;;;;4179284;28;20048;-62
2023/04/27 09:38:44;;;;;;;5.15;1.77;;;13.60;85.90;;;;;;4171699;28;20695;-62
2023/04/27 09:40:46;;;;;;;4.10;1.90;;;13.70;89.80;;;;;;4164902;28;20033;-66
2023/04/27 09:42:48;;;;;;;3.58;1.77;;;13.60;81.10;;;;;;4165366;28;20773;-69
2023/04/27 09:44:51;;;;;;;3.65;1.80;;;13.70;83.00;;;;;;4172658;28;20041;-69
2023/04/27 09:46:57;;;;;;;3.50;1.70;;;13.60;81.90;;;;;;4154174;28;20047;-69
2023/04/27 09:48:58;;;;;;;5.18;2.10;;;13.70;84.10;;;;;;4163612;28;20048;-70
2023/04/27 09:50:58;;;;;;;3.42;2.20;;;13.70;85.60;;;;;;4160369;28;20025;-70
2023/04/27 09:52:59;;;;;;;6.47;2.30;;;13.70;86.10;;;;;;4174384;28;20335;-70
2023/04/27 09:55:02;;;;;;;3.85;2.30;;;13.70;86.90;;;;;;4180973;28;20138;-70
2023/04/27 09:57:26;;;;;;;4.68;2.15;;;13.80;90.30;;;;;;4171449;28;20037;-70
2023/04/27 10:00:06;;;;;;;5.70;2.15;;;13.80;86.20;;;;;;4197383;28;20040;-70
2023/04/27 10:02:14;;;;;;;8.57;2.72;;;13.80;84.90;;;;;;4179249;28;20051;-70
2023/04/27 10:04:39;;;;;;;5.40;2.05;;;13.60;80.50;;;;;;4178583;28;20037;-70
2023/04/27 10:06:56;;;;;;;4.07;2.33;;;13.70;81.00;;;;;;4192043;28;20115;-70
2023/04/27 10:08:58;;;;;;;6.60;2.65;;;13.70;82.20;;;;;;4174691;28;20068;-70
2023/04/27 10:10:58;;;;;;;8.32;2.72;;;13.70;84.00;;;;;;4169600;28;20086;-70
2023/04/27 10:13:02;;;;;;;4.28;2.60;;;13.70;81.00;;;;;;4175291;28;20705;-70
2023/04/27 10:15:14;;;;;;;4.40;2.10;;;13.80;79.50;;;;;;4177108;28;20441;-67
2023/04/27 10:17:16;;;;;;;5.47;2.47;;;13.90;84.20;;;;;;4195577;28;20440;-69
2023/04/27 10:19:17;;;;;;;8.90;2.90;;;13.90;79.70;;;;;;4171175;28;20117;-69
2023/04/27 10:21:17;;;;;;;6.57;2.50;;;13.80;83.50;;;;;;4184398;28;20488;-69
2023/04/27 10:23:23;;;;;;;7.10;2.22;;;13.70;81.40;;;;;;4177182;28;20037;-69
2023/04/27 10:25:38;;;;;;;4.78;2.03;;;13.80;81.90;;;;;;4180090;28;20116;-66
2023/04/27 10:27:40;;;;;;;6.75;2.38;;;13.90;88.20;;;;;;4179377;28;20029;-66
2023/04/27 10:29:42;;;;;;;2.45;1.73;;;14.00;76.70;;;;;;4183882;28;20032;-66
2023/04/27 10:31:46;;;;;;;9.23;2.50;;;14.00;76.70;;;;;;4178983;28;20033;-66
2023/04/27 10:33:46;;;;;;;6.38;2.40;;;14.10;72.40;;;;;;4174021;28;20060;-66
2023/04/27 10:35:57;;;;;;;4.63;1.92;;;13.90;74.10;;;;;;4177542;28;20036;-66
2023/04/27 10:38:09;;;;;;;3.92;1.98;;;13.90;77.00;;;;;;4180802;28;20040;-67
2023/04/27 10:40:18;;;;;;;6.22;2.72;;;14.00;76.00;;;;;;4151199;28;20084;-66